Flight Track Log - Related Links

Times and Time Zones

All times are in EDT time to prevent confusion due to time zone crossing. See the ASQ6150 flight status page for this flight to view local times or setup timezone preferences in your user account.

Time Position Orientation Groundspeed Altitude Reporting Facility
EDT Latitude Longitude Course Direction KTS MPH feet Rate Location/Type
Thu 05:13:00 PM 39.4350 -86.0532 119° Southeast  Level FlightAware Approximate
Thu 05:14:00 PM 39.3793 -85.9260 119° Southeast  Level FlightAware Approximate
Thu 05:15:00 PM 39.3235 -85.7990 120° Southeast  Level FlightAware Approximate
Thu 05:16:00 PM 39.2675 -85.6722 120° Southeast  Level FlightAware Approximate
Thu 05:17:00 PM 39.2114 -85.5456 120° Southeast  Level FlightAware Approximate
Thu 05:18:00 PM 39.1551 -85.4193 120° Southeast  Level FlightAware Approximate
Thu 05:19:00 PM 39.0983 -85.2934 121° Southeast  Level FlightAware Approximate
Thu 05:20:00 PM 39.0408 -85.1682 121° Southeast  Level FlightAware Approximate
Thu 05:21:00 PM 38.9831 -85.0432 121° Southeast  Level FlightAware Approximate
Thu 05:22:00 PM 38.9252 -84.9184 121° Southeast  Level FlightAware Approximate
Thu 05:23:00 PM 38.8691 -84.7924 120° Southeast  Level FlightAware Approximate
Thu 05:24:00 PM 38.8132 -84.6664 120° Southeast  Level FlightAware Approximate
Thu 05:25:00 PM 38.7571 -84.5406 120° Southeast  Level FlightAware Approximate
Thu 05:26:00 PM 38.6984 -84.4170 125° Southeast  Level FlightAware Approximate
Thu 05:27:00 PM 38.6332 -84.2990 97° East  Level FlightAware Approximate
Thu 05:28:00 PM 38.6190 -84.1555 97° East  Level FlightAware Approximate
Thu 05:29:00 PM 38.6047 -84.0121 97° East  Level FlightAware Approximate
Thu 05:30:00 PM 38.5901 -83.8688 97° East  Level FlightAware Approximate
Thu 05:31:00 PM 38.5754 -83.7255 97° East  Level FlightAware Approximate
Thu 05:32:00 PM 38.5606 -83.5823 98° East  Level FlightAware Approximate
Thu 05:33:00 PM 38.5455 -83.4391 98° East  Level FlightAware Approximate
Thu 05:34:00 PM 38.5303 -83.2960 98° East  Level FlightAware Approximate
Thu 05:35:00 PM 38.5149 -83.1530 98° East  Level FlightAware Approximate
Thu 05:36:00 PM 38.4991 -83.0100 99° East  Level FlightAware Approximate
Thu 05:37:00 PM 38.4809 -82.8676 99° East  Level FlightAware Approximate
Thu 05:38:00 PM 38.4624 -82.7252 99° East  Level FlightAware Approximate
Thu 05:39:00 PM 38.4438 -82.5830 99° East  Level FlightAware Approximate
Thu 05:40:00 PM 38.4250 -82.4408 100° East  Level FlightAware Approximate
Thu 05:41:00 PM 38.4060 -82.2986 100° East  Level FlightAware Approximate
Thu 05:42:00 PM 38.3868 -82.1566 100° East  Level FlightAware Approximate
Thu 05:43:00 PM 38.3675 -82.0146 100° East  Level FlightAware Approximate
Thu 05:44:00 PM 38.3480 -81.8727 100° East  Level FlightAware Approximate
Thu 05:45:00 PM 38.3283 -81.7309 100° East  Level FlightAware Approximate
Thu 05:46:00 PM 38.3082 -81.5892 100° East  Level FlightAware Approximate
Thu 05:47:00 PM 38.2880 -81.4476 100° East  Level FlightAware Approximate
Thu 05:48:00 PM 38.2675 -81.3060 100° East  Level FlightAware Approximate
Thu 05:49:00 PM 38.2451 -81.1650 101° East  Level FlightAware Approximate
Thu 05:50:00 PM 38.2225 -81.0241 102° East  Level FlightAware Approximate
Thu 05:51:00 PM 38.1996 -80.8833 102° East  Level FlightAware Approximate
Thu 05:52:00 PM 38.1766 -80.7426 102° East  Level FlightAware Approximate
Thu 05:53:00 PM 38.1545 -80.6017 101° East  Level FlightAware Approximate
Thu 05:54:00 PM 38.1334 -80.4606 101° East  Level FlightAware Approximate
Thu 05:55:00 PM 38.1112 -80.3198 103° East  Level FlightAware Approximate
Thu 05:56:00 PM 38.0859 -80.1799 103° East  Level FlightAware Approximate
Thu 05:57:00 PM 38.0604 -80.0401 103° East  Level FlightAware Approximate
Thu 05:58:00 PM 38.0343 -79.9005 103° East  Level FlightAware Approximate
Thu 05:59:00 PM 38.0078 -79.7611 104° East  Level FlightAware Approximate
Thu 06:00:00 PM 37.9833 -79.6215 90° East  Level FlightAware Approximate
Thu 06:01:00 PM 37.9633 -79.4806 102° East  Level FlightAware Approximate
Thu 06:02:00 PM 37.9391 -79.3406 102° East  Level FlightAware Approximate
Thu 06:03:00 PM 37.9147 -79.2008 102° East  Level FlightAware Approximate
Thu 06:04:00 PM 37.8887 -79.0623 111° Southeast  Level FlightAware Approximate
Thu 06:05:00 PM 37.8487 -78.9285 111° Southeast  Level FlightAware Approximate
Thu 06:06:00 PM 37.8085 -78.7948 111° Southeast  Level FlightAware Approximate
Thu 06:07:00 PM 37.7710 -78.6600 109° East  Level FlightAware Approximate
Thu 06:08:00 PM 37.7314 -78.5262 109° East  Level FlightAware Approximate
Thu 06:09:00 PM 37.6946 -78.3912 109° East  Level FlightAware Approximate
Thu 06:10:00 PM 37.6530 -78.2586 113° Southeast  Level FlightAware Approximate
Thu 06:11:00 PM 37.6091 -78.1272 113° Southeast  Level FlightAware Approximate
Thu 06:12:00 PM 37.5718 -77.9957 111° Southeast  Level FlightAware Approximate
Thu 06:13:00 PM 37.5309 -77.8629 111° Southeast  Level FlightAware Approximate
Thu 06:14:00 PM 37.5100 -77.7242 95° East  Level FlightAware Approximate
Thu 06:15:00 PM 37.4995 -77.5824 95° East  Level FlightAware Approximate
Thu 06:16:00 PM 37.4889 -77.4407 95° East  Level FlightAware Approximate
Thu 06:17:00 PM 37.4777 -77.2990 96° East  Level FlightAware Approximate
Thu 06:18:00 PM 37.4667 -77.1574 90° East  Level FlightAware Approximate
Thu 06:19:00 PM 37.4667 -77.0151 90° East  Level FlightAware Approximate
Thu 06:20:00 PM 37.4566 -76.8738 99° East  Level FlightAware Approximate
Thu 06:21:00 PM 37.4378 -76.7335 100° East  Level FlightAware Approximate
Thu 06:22:00 PM 37.4251 -76.5922 95° East  Level FlightAware Approximate
Thu 06:23:00 PM 37.4028 -76.4555 122° Southeast  Level FlightAware Approximate
Thu 06:24:00 PM 37.3036 -76.3955 154° Southeast  Level FlightAware Approximate
Thu 06:25:00 PM 37.1971 -76.3524 160° South  Level FlightAware Approximate
Thu 06:26:00 PM 37.0917 -76.3017 154° Southeast  Level FlightAware Approximate
Thu 06:27:00 PM 36.9885 -76.2443 158° South  Level FlightAware Approximate
Thu 06:28:00 PM 36.8946 -76.2012 162° South  Level Estimated
Thu 06:29:00 PM 36.8946 -76.2012 162° South  Level Estimated
Thu 06:30:00 PM 36.8946 -76.2012 162° South  Level Estimated
Thu 06:31:00 PM 36.8946 -76.2012 162° South  Level Estimated
Thu 06:32:00 PM 36.8946 -76.2012 162° South  Level Estimated
Thu 06:33:00 PM 36.8946 -76.2012 162° South  Level Estimated
Thu 06:34:00 PM 36.8946 -76.2012 162° South  Level Estimated
Thu 06:35:00 PM 36.8946 -76.2012 162° South  Level Estimated
Thu 06:36:00 PM 36.8946 -76.2012 162° South  Level Estimated
Thu 06:37:00 PM 36.8946 -76.2012 162° South  Level Estimated
Thu 06:38:00 PM 36.8946 -76.2012 162° South  Level Estimated

Login

Don't have an account? Register now (free) for customized features, flight alerts, and more!